sensor_id;sensor_type;location;lat;lon;timestamp;temperature;humidity
41644;DHT22;44236;48.098;11.582;2023-06-19T00:02:06;23.90;43.90
41644;DHT22;44236;48.098;11.582;2023-06-19T00:04:32;23.90;43.90
41644;DHT22;44236;48.098;11.582;2023-06-19T00:06:59;23.80;43.90
41644;DHT22;44236;48.098;11.582;2023-06-19T00:09:25;23.80;43.90
41644;DHT22;44236;48.098;11.582;2023-06-19T00:11:50;23.80;44.00
41644;DHT22;44236;48.098;11.582;2023-06-19T00:14:16;23.80;44.10
41644;DHT22;44236;48.098;11.582;2023-06-19T00:16:43;23.90;44.20
41644;DHT22;44236;48.098;11.582;2023-06-19T00:19:09;23.80;44.20
41644;DHT22;44236;48.098;11.582;2023-06-19T00:21:36;23.80;44.30
41644;DHT22;44236;48.098;11.582;2023-06-19T00:24:03;23.80;44.20
41644;DHT22;44236;48.098;11.582;2023-06-19T00:26:28;23.70;44.20
41644;DHT22;44236;48.098;11.582;2023-06-19T00:28:54;23.70;44.20
41644;DHT22;44236;48.098;11.582;2023-06-19T00:31:19;23.70;44.10
41644;DHT22;44236;48.098;11.582;2023-06-19T00:33:45;23.70;44.10
41644;DHT22;44236;48.098;11.582;2023-06-19T00:36:15;23.70;43.90
41644;DHT22;44236;48.098;11.582;2023-06-19T00:38:42;23.70;43.90
41644;DHT22;44236;48.098;11.582;2023-06-19T00:41:07;23.70;43.90
41644;DHT22;44236;48.098;11.582;2023-06-19T00:43:33;23.70;43.80
41644;DHT22;44236;48.098;11.582;2023-06-19T00:45:59;23.70;43.80
41644;DHT22;44236;48.098;11.582;2023-06-19T00:48:27;23.70;43.80
41644;DHT22;44236;48.098;11.582;2023-06-19T00:50:53;23.70;43.70
41644;DHT22;44236;48.098;11.582;2023-06-19T00:53:20;23.70;43.80
41644;DHT22;44236;48.098;11.582;2023-06-19T00:55:47;23.70;43.80
41644;DHT22;44236;48.098;11.582;2023-06-19T00:58:13;23.70;43.80
41644;DHT22;44236;48.098;11.582;2023-06-19T01:00:39;23.70;43.80
41644;DHT22;44236;48.098;11.582;2023-06-19T01:03:05;23.70;43.80
41644;DHT22;44236;48.098;11.582;2023-06-19T01:05:31;23.60;43.80
41644;DHT22;44236;48.098;11.582;2023-06-19T01:10:41;23.70;43.80
41644;DHT22;44236;48.098;11.582;2023-06-19T01:13:16;23.60;43.70
41644;DHT22;44236;48.098;11.582;2023-06-19T01:15:42;23.60;43.70
41644;DHT22;44236;48.098;11.582;2023-06-19T01:18:09;23.60;43.80
41644;DHT22;44236;48.098;11.582;2023-06-19T01:20:37;23.60;43.70
41644;DHT22;44236;48.098;11.582;2023-06-19T01:23:10;23.60;43.70
41644;DHT22;44236;48.098;11.582;2023-06-19T01:25:36;23.60;43.70
41644;DHT22;44236;48.098;11.582;2023-06-19T01:28:07;23.60;43.80
41644;DHT22;44236;48.098;11.582;2023-06-19T01:30:35;23.60;43.80
41644;DHT22;44236;48.098;11.582;2023-06-19T01:33:23;23.60;43.80
41644;DHT22;44236;48.098;11.582;2023-06-19T01:35:51;23.60;43.80
41644;DHT22;44236;48.098;11.582;2023-06-19T01:38:21;23.60;43.90
41644;DHT22;44236;48.098;11.582;2023-06-19T01:40:48;23.60;43.90
41644;DHT22;44236;48.098;11.582;2023-06-19T01:43:16;23.60;44.00
41644;DHT22;44236;48.098;11.582;2023-06-19T01:45:42;23.60;44.50
41644;DHT22;44236;48.098;11.582;2023-06-19T01:48:08;23.60;44.10
41644;DHT22;44236;48.098;11.582;2023-06-19T01:50:34;23.60;44.10
41644;DHT22;44236;48.098;11.582;2023-06-19T01:52:59;23.60;44.10
41644;DHT22;44236;48.098;11.582;2023-06-19T01:55:25;23.50;44.20
41644;DHT22;44236;48.098;11.582;2023-06-19T01:57:51;23.50;44.30
41644;DHT22;44236;48.098;11.582;2023-06-19T02:00:17;23.50;44.30
41644;DHT22;44236;48.098;11.582;2023-06-19T02:02:43;23.50;44.30
41644;DHT22;44236;48.098;11.582;2023-06-19T02:05:09;23.50;44.50
41644;DHT22;44236;48.098;11.582;2023-06-19T02:07:34;23.50;44.50
41644;DHT22;44236;48.098;11.582;2023-06-19T02:10:00;23.50;44.60
41644;DHT22;44236;48.098;11.582;2023-06-19T02:12:26;23.50;44.70
41644;DHT22;44236;48.098;11.582;2023-06-19T02:14:52;23.50;44.80
41644;DHT22;44236;48.098;11.582;2023-06-19T02:17:17;23.50;45.30
41644;DHT22;44236;48.098;11.582;2023-06-19T02:19:43;23.60;44.80
41644;DHT22;44236;48.098;11.582;2023-06-19T02:22:09;23.60;44.80
41644;DHT22;44236;48.098;11.582;2023-06-19T02:24:34;23.60;44.80
41644;DHT22;44236;48.098;11.582;2023-06-19T02:27:00;23.60;45.00
41644;DHT22;44236;48.098;11.582;2023-06-19T02:29:27;23.60;45.00
41644;DHT22;44236;48.098;11.582;2023-06-19T02:31:55;23.60;45.20
41644;DHT22;44236;48.098;11.582;2023-06-19T02:34:20;23.60;45.20
41644;DHT22;44236;48.098;11.582;2023-06-19T02:36:49;23.60;45.30
41644;DHT22;44236;48.098;11.582;2023-06-19T02:39:15;23.60;45.30
41644;DHT22;44236;48.098;11.582;2023-06-19T02:41:41;23.60;45.30
41644;DHT22;44236;48.098;11.582;2023-06-19T02:44:14;23.60;45.40
41644;DHT22;44236;48.098;11.582;2023-06-19T02:46:40;23.60;45.50
41644;DHT22;44236;48.098;11.582;2023-06-19T02:49:05;23.60;45.60
41644;DHT22;44236;48.098;11.582;2023-06-19T02:51:31;23.60;45.70
41644;DHT22;44236;48.098;11.582;2023-06-19T02:53:57;23.50;45.70
41644;DHT22;44236;48.098;11.582;2023-06-19T02:56:23;23.60;45.80
41644;DHT22;44236;48.098;11.582;2023-06-19T02:58:49;23.50;45.70
41644;DHT22;44236;48.098;11.582;2023-06-19T03:01:15;23.50;45.80
41644;DHT22;44236;48.098;11.582;2023-06-19T03:03:41;23.50;45.80
41644;DHT22;44236;48.098;11.582;2023-06-19T03:06:07;23.50;45.90
41644;DHT22;44236;48.098;11.582;2023-06-19T03:08:36;23.50;46.10
41644;DHT22;44236;48.098;11.582;2023-06-19T03:11:03;23.50;46.30
41644;DHT22;44236;48.098;11.582;2023-06-19T03:13:43;23.50;46.40
41644;DHT22;44236;48.098;11.582;2023-06-19T03:16:09;23.50;46.60
41644;DHT22;44236;48.098;11.582;2023-06-19T03:18:34;23.50;46.70
41644;DHT22;44236;48.098;11.582;2023-06-19T03:21:00;23.50;46.80
41644;DHT22;44236;48.098;11.582;2023-06-19T03:23:26;23.50;46.90
41644;DHT22;44236;48.098;11.582;2023-06-19T03:25:51;23.50;47.10
41644;DHT22;44236;48.098;11.582;2023-06-19T03:28:17;23.50;47.20
41644;DHT22;44236;48.098;11.582;2023-06-19T03:30:42;23.90;47.40
41644;DHT22;44236;48.098;11.582;2023-06-19T03:33:08;23.50;47.10
41644;DHT22;44236;48.098;11.582;2023-06-19T03:35:33;23.50;47.20
41644;DHT22;44236;48.098;11.582;2023-06-19T03:37:59;23.50;47.30
41644;DHT22;44236;48.098;11.582;2023-06-19T03:40:24;23.50;47.20
41644;DHT22;44236;48.098;11.582;2023-06-19T03:42:50;23.50;47.20
41644;DHT22;44236;48.098;11.582;2023-06-19T03:45:16;23.50;47.20
41644;DHT22;44236;48.098;11.582;2023-06-19T03:47:41;23.50;47.20
41644;DHT22;44236;48.098;11.582;2023-06-19T03:50:07;23.50;47.20
41644;DHT22;44236;48.098;11.582;2023-06-19T03:52:36;23.50;47.00
41644;DHT22;44236;48.098;11.582;2023-06-19T03:55:03;23.50;47.00
41644;DHT22;44236;48.098;11.582;2023-06-19T03:57:29;23.50;46.80
41644;DHT22;44236;48.098;11.582;2023-06-19T03:59:55;23.60;46.80
41644;DHT22;44236;48.098;11.582;2023-06-19T04:02:21;23.60;46.70
41644;DHT22;44236;48.098;11.582;2023-06-19T04:04:47;23.60;46.60
41644;DHT22;44236;48.098;11.582;2023-06-19T04:07:12;23.60;46.40
41644;DHT22;44236;48.098;11.582;2023-06-19T04:09:39;23.60;46.40
41644;DHT22;44236;48.098;11.582;2023-06-19T04:12:04;23.70;46.50
41644;DHT22;44236;48.098;11.582;2023-06-19T04:14:30;23.70;46.30
41644;DHT22;44236;48.098;11.582;2023-06-19T04:16:56;23.70;46.60
41644;DHT22;44236;48.098;11.582;2023-06-19T04:19:21;23.70;46.70
41644;DHT22;44236;48.098;11.582;2023-06-19T04:21:47;23.80;46.60
41644;DHT22;44236;48.098;11.582;2023-06-19T04:24:13;23.80;47.20
41644;DHT22;44236;48.098;11.582;2023-06-19T04:26:38;23.90;46.70
41644;DHT22;44236;48.098;11.582;2023-06-19T04:29:04;23.90;46.80
41644;DHT22;44236;48.098;11.582;2023-06-19T04:31:32;23.90;46.90
41644;DHT22;44236;48.098;11.582;2023-06-19T04:33:57;23.90;47.10
41644;DHT22;44236;48.098;11.582;2023-06-19T04:36:23;23.90;47.60
41644;DHT22;44236;48.098;11.582;2023-06-19T04:38:49;24.00;47.00
41644;DHT22;44236;48.098;11.582;2023-06-19T04:41:17;24.00;47.00
41644;DHT22;44236;48.098;11.582;2023-06-19T04:43:43;24.10;47.20
41644;DHT22;44236;48.098;11.582;2023-06-19T04:46:09;24.00;47.20
41644;DHT22;44236;48.098;11.582;2023-06-19T04:48:34;24.10;47.40
41644;DHT22;44236;48.098;11.582;2023-06-19T04:51:02;24.10;47.50
41644;DHT22;44236;48.098;11.582;2023-06-19T04:53:28;24.10;47.60
41644;DHT22;44236;48.098;11.582;2023-06-19T04:55:54;24.10;47.60
41644;DHT22;44236;48.098;11.582;2023-06-19T04:58:21;24.20;47.70
41644;DHT22;44236;48.098;11.582;2023-06-19T05:00:47;24.20;47.90
41644;DHT22;44236;48.098;11.582;2023-06-19T05:03:17;24.20;48.10
41644;DHT22;44236;48.098;11.582;2023-06-19T05:05:44;24.30;48.00
41644;DHT22;44236;48.098;11.582;2023-06-19T05:08:09;24.30;47.70
41644;DHT22;44236;48.098;11.582;2023-06-19T05:10:35;24.20;47.50
41644;DHT22;44236;48.098;11.582;2023-06-19T05:13:01;24.40;47.60
41644;DHT22;44236;48.098;11.582;2023-06-19T05:15:27;24.40;47.60
41644;DHT22;44236;48.098;11.582;2023-06-19T05:17:53;24.40;47.60
41644;DHT22;44236;48.098;11.582;2023-06-19T05:20:19;24.40;47.90
41644;DHT22;44236;48.098;11.582;2023-06-19T05:22:45;24.40;48.10
41644;DHT22;44236;48.098;11.582;2023-06-19T05:25:11;24.40;48.00
41644;DHT22;44236;48.098;11.582;2023-06-19T05:27:37;24.40;47.70
41644;DHT22;44236;48.098;11.582;2023-06-19T05:30:03;24.40;48.00
41644;DHT22;44236;48.098;11.582;2023-06-19T05:32:29;24.30;48.40
41644;DHT22;44236;48.098;11.582;2023-06-19T05:34:56;24.20;48.90
41644;DHT22;44236;48.098;11.582;2023-06-19T05:37:21;24.20;49.00
41644;DHT22;44236;48.098;11.582;2023-06-19T05:39:48;24.10;49.50
41644;DHT22;44236;48.098;11.582;2023-06-19T05:42:14;24.00;49.70
41644;DHT22;44236;48.098;11.582;2023-06-19T05:44:39;23.90;49.40
41644;DHT22;44236;48.098;11.582;2023-06-19T05:47:06;24.00;49.90
41644;DHT22;44236;48.098;11.582;2023-06-19T05:49:31;24.00;49.80
41644;DHT22;44236;48.098;11.582;2023-06-19T05:51:57;24.00;50.40
41644;DHT22;44236;48.098;11.582;2023-06-19T05:54:26;24.00;50.30
41644;DHT22;44236;48.098;11.582;2023-06-19T05:56:52;24.00;50.10
41644;DHT22;44236;48.098;11.582;2023-06-19T05:59:18;23.90;49.60
41644;DHT22;44236;48.098;11.582;2023-06-19T06:01:44;24.20;49.00
41644;DHT22;44236;48.098;11.582;2023-06-19T06:04:09;24.30;49.00
41644;DHT22;44236;48.098;11.582;2023-06-19T06:06:35;24.30;48.80
41644;DHT22;44236;48.098;11.582;2023-06-19T06:09:01;24.30;49.20
41644;DHT22;44236;48.098;11.582;2023-06-19T06:11:26;24.30;48.80
41644;DHT22;44236;48.098;11.582;2023-06-19T06:13:52;24.40;47.80
41644;DHT22;44236;48.098;11.582;2023-06-19T06:16:18;24.40;48.40
41644;DHT22;44236;48.098;11.582;2023-06-19T06:18:45;24.40;48.40
41644;DHT22;44236;48.098;11.582;2023-06-19T06:21:10;24.40;48.40
41644;DHT22;44236;48.098;11.582;2023-06-19T06:23:38;24.40;48.40
41644;DHT22;44236;48.098;11.582;2023-06-19T06:26:05;24.40;48.30
41644;DHT22;44236;48.098;11.582;2023-06-19T06:28:31;24.40;48.30
41644;DHT22;44236;48.098;11.582;2023-06-19T06:30:57;24.40;47.80
41644;DHT22;44236;48.098;11.582;2023-06-19T06:33:23;24.40;47.60
41644;DHT22;44236;48.098;11.582;2023-06-19T06:35:49;24.40;47.20
41644;DHT22;44236;48.098;11.582;2023-06-19T06:38:14;24.40;47.30
41644;DHT22;44236;48.098;11.582;2023-06-19T06:40:40;24.40;46.80
41644;DHT22;44236;48.098;11.582;2023-06-19T06:43:07;24.40;46.40
41644;DHT22;44236;48.098;11.582;2023-06-19T06:45:32;24.40;46.30
41644;DHT22;44236;48.098;11.582;2023-06-19T06:47:58;24.50;46.30
41644;DHT22;44236;48.098;11.582;2023-06-19T06:50:23;24.50;46.30
41644;DHT22;44236;48.098;11.582;2023-06-19T06:52:49;24.50;46.60
41644;DHT22;44236;48.098;11.582;2023-06-19T06:55:15;24.50;46.50
41644;DHT22;44236;48.098;11.582;2023-06-19T06:57:40;24.50;46.50
41644;DHT22;44236;48.098;11.582;2023-06-19T07:00:06;24.50;46.50
41644;DHT22;44236;48.098;11.582;2023-06-19T07:02:35;24.50;46.50
41644;DHT22;44236;48.098;11.582;2023-06-19T07:05:02;24.50;47.00
41644;DHT22;44236;48.098;11.582;2023-06-19T07:07:28;24.50;46.90
41644;DHT22;44236;48.098;11.582;2023-06-19T07:09:54;24.50;47.30
41644;DHT22;44236;48.098;11.582;2023-06-19T07:12:19;24.50;46.90
41644;DHT22;44236;48.098;11.582;2023-06-19T07:14:45;24.50;46.30
41644;DHT22;44236;48.098;11.582;2023-06-19T07:17:11;24.50;46.70
41644;DHT22;44236;48.098;11.582;2023-06-19T07:19:36;24.50;46.90
41644;DHT22;44236;48.098;11.582;2023-06-19T07:22:02;24.50;46.90
41644;DHT22;44236;48.098;11.582;2023-06-19T07:24:28;24.50;46.70
41644;DHT22;44236;48.098;11.582;2023-06-19T07:26:54;24.50;46.70
41644;DHT22;44236;48.098;11.582;2023-06-19T07:29:20;24.50;46.30
41644;DHT22;44236;48.098;11.582;2023-06-19T07:31:47;24.50;46.50
41644;DHT22;44236;48.098;11.582;2023-06-19T07:34:13;24.50;46.10
41644;DHT22;44236;48.098;11.582;2023-06-19T07:36:39;24.50;46.50
41644;DHT22;44236;48.098;11.582;2023-06-19T07:39:05;24.50;47.00
41644;DHT22;44236;48.098;11.582;2023-06-19T07:41:30;24.50;46.20
41644;DHT22;44236;48.098;11.582;2023-06-19T07:43:56;24.50;46.40
41644;DHT22;44236;48.098;11.582;2023-06-19T07:46:21;24.50;46.60
41644;DHT22;44236;48.098;11.582;2023-06-19T07:48:47;24.50;46.60
41644;DHT22;44236;48.098;11.582;2023-06-19T07:51:13;24.50;46.70
41644;DHT22;44236;48.098;11.582;2023-06-19T07:53:38;24.50;46.50
41644;DHT22;44236;48.098;11.582;2023-06-19T07:56:05;24.50;46.20
41644;DHT22;44236;48.098;11.582;2023-06-19T07:58:30;24.50;46.10
41644;DHT22;44236;48.098;11.582;2023-06-19T08:00:56;24.60;46.20
41644;DHT22;44236;48.098;11.582;2023-06-19T08:03:22;24.60;46.40
41644;DHT22;44236;48.098;11.582;2023-06-19T08:05:49;24.60;46.00
41644;DHT22;44236;48.098;11.582;2023-06-19T08:08:15;24.60;46.10
41644;DHT22;44236;48.098;11.582;2023-06-19T08:10:40;24.60;45.90
41644;DHT22;44236;48.098;11.582;2023-06-19T08:13:06;24.60;45.90
41644;DHT22;44236;48.098;11.582;2023-06-19T08:15:32;24.60;46.40
41644;DHT22;44236;48.098;11.582;2023-06-19T08:17:57;24.70;46.00
41644;DHT22;44236;48.098;11.582;2023-06-19T08:20:23;24.60;45.80
41644;DHT22;44236;48.098;11.582;2023-06-19T08:22:49;24.60;45.90
41644;DHT22;44236;48.098;11.582;2023-06-19T08:25:14;24.60;45.80
41644;DHT22;44236;48.098;11.582;2023-06-19T08:27:40;24.60;45.70
41644;DHT22;44236;48.098;11.582;2023-06-19T08:30:06;24.60;45.80
41644;DHT22;44236;48.098;11.582;2023-06-19T08:32:32;24.60;45.90
41644;DHT22;44236;48.098;11.582;2023-06-19T08:34:59;24.60;46.00
41644;DHT22;44236;48.098;11.582;2023-06-19T08:37:25;24.60;45.80
41644;DHT22;44236;48.098;11.582;2023-06-19T08:39:51;24.60;45.80
41644;DHT22;44236;48.098;11.582;2023-06-19T08:42:16;24.60;45.80
41644;DHT22;44236;48.098;11.582;2023-06-19T08:44:42;24.60;45.80
41644;DHT22;44236;48.098;11.582;2023-06-19T08:47:07;24.60;45.80
41644;DHT22;44236;48.098;11.582;2023-06-19T08:49:34;24.60;45.70
41644;DHT22;44236;48.098;11.582;2023-06-19T08:52:03;24.60;46.50
41644;DHT22;44236;48.098;11.582;2023-06-19T08:54:30;24.60;45.90
41644;DHT22;44236;48.098;11.582;2023-06-19T08:56:56;24.60;46.40
41644;DHT22;44236;48.098;11.582;2023-06-19T08:59:26;24.60;45.90
41644;DHT22;44236;48.098;11.582;2023-06-19T09:01:53;24.60;45.90
41644;DHT22;44236;48.098;11.582;2023-06-19T09:04:24;24.60;45.90
41644;DHT22;44236;48.098;11.582;2023-06-19T09:09:21;24.60;45.80
41644;DHT22;44236;48.098;11.582;2023-06-19T09:12:04;24.60;45.90
41644;DHT22;44236;48.098;11.582;2023-06-19T09:17:03;24.60;46.00
41644;DHT22;44236;48.098;11.582;2023-06-19T09:19:29;24.60;46.00
41644;DHT22;44236;48.098;11.582;2023-06-19T09:22:07;24.60;46.00
41644;DHT22;44236;48.098;11.582;2023-06-19T09:24:39;24.60;46.20
41644;DHT22;44236;48.098;11.582;2023-06-19T09:27:12;24.60;46.10
41644;DHT22;44236;48.098;11.582;2023-06-19T09:29:43;24.60;46.10
41644;DHT22;44236;48.098;11.582;2023-06-19T09:34:47;24.60;46.10
41644;DHT22;44236;48.098;11.582;2023-06-19T09:37:14;24.60;45.90
41644;DHT22;44236;48.098;11.582;2023-06-19T09:39:41;24.60;45.90
41644;DHT22;44236;48.098;11.582;2023-06-19T09:42:08;24.60;46.30
41644;DHT22;44236;48.098;11.582;2023-06-19T09:44:42;24.60;45.90
41644;DHT22;44236;48.098;11.582;2023-06-19T09:47:18;24.60;45.70
41644;DHT22;44236;48.098;11.582;2023-06-19T09:49:54;24.60;45.70
41644;DHT22;44236;48.098;11.582;2023-06-19T09:52:21;24.60;45.70
41644;DHT22;44236;48.098;11.582;2023-06-19T09:54:50;24.60;45.60
41644;DHT22;44236;48.098;11.582;2023-06-19T09:57:16;24.60;45.90
41644;DHT22;44236;48.098;11.582;2023-06-19T09:59:43;24.60;46.10
41644;DHT22;44236;48.098;11.582;2023-06-19T10:02:09;24.70;46.20
41644;DHT22;44236;48.098;11.582;2023-06-19T10:04:45;24.70;46.50
41644;DHT22;44236;48.098;11.582;2023-06-19T10:07:22;24.70;47.30
41644;DHT22;44236;48.098;11.582;2023-06-19T10:10:01;24.70;46.20
41644;DHT22;44236;48.098;11.582;2023-06-19T10:17:41;24.70;46.10
41644;DHT22;44236;48.098;11.582;2023-06-19T10:23:05;24.80;46.00
41644;DHT22;44236;48.098;11.582;2023-06-19T10:25:38;24.80;45.80
41644;DHT22;44236;48.098;11.582;2023-06-19T10:28:15;24.80;48.40
41644;DHT22;44236;48.098;11.582;2023-06-19T10:30:41;24.90;53.30
41644;DHT22;44236;48.098;11.582;2023-06-19T10:33:07;24.80;47.30
41644;DHT22;44236;48.098;11.582;2023-06-19T10:35:40;24.80;49.70
41644;DHT22;44236;48.098;11.582;2023-06-19T10:38:09;24.90;52.60
41644;DHT22;44236;48.098;11.582;2023-06-19T10:40:36;24.80;50.10
41644;DHT22;44236;48.098;11.582;2023-06-19T10:43:03;24.90;49.00
41644;DHT22;44236;48.098;11.582;2023-06-19T10:45:29;24.90;50.10
41644;DHT22;44236;48.098;11.582;2023-06-19T10:47:55;24.90;50.00
41644;DHT22;44236;48.098;11.582;2023-06-19T10:50:22;24.80;49.80
41644;DHT22;44236;48.098;11.582;2023-06-19T10:52:48;24.80;48.40
41644;DHT22;44236;48.098;11.582;2023-06-19T10:55:17;24.80;48.60
41644;DHT22;44236;48.098;11.582;2023-06-19T10:57:46;24.80;48.80
41644;DHT22;44236;48.098;11.582;2023-06-19T11:00:23;24.80;48.80
41644;DHT22;44236;48.098;11.582;2023-06-19T11:02:49;24.90;49.00
41644;DHT22;44236;48.098;11.582;2023-06-19T11:05:14;24.90;48.40
41644;DHT22;44236;48.098;11.582;2023-06-19T11:07:40;24.90;48.40
41644;DHT22;44236;48.098;11.582;2023-06-19T11:10:06;24.90;48.30
41644;DHT22;44236;48.098;11.582;2023-06-19T11:12:32;24.90;47.80
41644;DHT22;44236;48.098;11.582;2023-06-19T11:15:02;24.90;47.60
41644;DHT22;44236;48.098;11.582;2023-06-19T11:17:28;24.90;47.70
41644;DHT22;44236;48.098;11.582;2023-06-19T11:19:57;24.90;47.00
41644;DHT22;44236;48.098;11.582;2023-06-19T11:22:22;24.20;48.30
41644;DHT22;44236;48.098;11.582;2023-06-19T11:24:48;24.90;48.10
41644;DHT22;44236;48.098;11.582;2023-06-19T11:27:20;24.90;48.00
41644;DHT22;44236;48.098;11.582;2023-06-19T11:29:55;24.90;48.10
41644;DHT22;44236;48.098;11.582;2023-06-19T11:32:22;24.90;47.40
41644;DHT22;44236;48.098;11.582;2023-06-19T11:34:52;25.00;48.40
41644;DHT22;44236;48.098;11.582;2023-06-19T11:37:18;25.00;48.40
41644;DHT22;44236;48.098;11.582;2023-06-19T11:39:47;25.00;48.50
41644;DHT22;44236;48.098;11.582;2023-06-19T11:42:13;25.00;48.80
41644;DHT22;44236;48.098;11.582;2023-06-19T11:45:02;25.00;48.30
41644;DHT22;44236;48.098;11.582;2023-06-19T11:47:31;25.00;47.80
41644;DHT22;44236;48.098;11.582;2023-06-19T11:49:59;25.00;47.80
41644;DHT22;44236;48.098;11.582;2023-06-19T11:52:25;25.00;48.60
41644;DHT22;44236;48.098;11.582;2023-06-19T11:54:51;25.00;48.20
41644;DHT22;44236;48.098;11.582;2023-06-19T11:57:17;25.00;48.40
41644;DHT22;44236;48.098;11.582;2023-06-19T11:59:43;25.00;48.00
41644;DHT22;44236;48.098;11.582;2023-06-19T12:02:09;25.00;48.30
41644;DHT22;44236;48.098;11.582;2023-06-19T12:04:35;25.00;48.40
41644;DHT22;44236;48.098;11.582;2023-06-19T12:07:00;25.10;47.60
41644;DHT22;44236;48.098;11.582;2023-06-19T12:09:26;25.10;47.60
41644;DHT22;44236;48.098;11.582;2023-06-19T12:11:53;25.10;47.40
41644;DHT22;44236;48.098;11.582;2023-06-19T12:14:18;25.10;47.40
41644;DHT22;44236;48.098;11.582;2023-06-19T12:16:48;25.10;47.50
41644;DHT22;44236;48.098;11.582;2023-06-19T12:19:14;25.10;48.00
41644;DHT22;44236;48.098;11.582;2023-06-19T12:21:40;25.10;48.10
41644;DHT22;44236;48.098;11.582;2023-06-19T12:24:05;25.10;48.30
41644;DHT22;44236;48.098;11.582;2023-06-19T12:26:34;25.10;47.60
41644;DHT22;44236;48.098;11.582;2023-06-19T12:29:08;25.10;47.80
41644;DHT22;44236;48.098;11.582;2023-06-19T12:31:34;25.10;48.40
41644;DHT22;44236;48.098;11.582;2023-06-19T12:34:02;25.20;47.90
41644;DHT22;44236;48.098;11.582;2023-06-19T12:36:28;25.10;47.50
41644;DHT22;44236;48.098;11.582;2023-06-19T12:38:54;25.20;47.70
41644;DHT22;44236;48.098;11.582;2023-06-19T12:41:20;25.20;47.80
41644;DHT22;44236;48.098;11.582;2023-06-19T12:43:46;25.20;48.10
41644;DHT22;44236;48.098;11.582;2023-06-19T12:46:12;25.20;47.80
41644;DHT22;44236;48.098;11.582;2023-06-19T12:48:38;25.20;47.70
41644;DHT22;44236;48.098;11.582;2023-06-19T12:51:04;25.20;47.80
41644;DHT22;44236;48.098;11.582;2023-06-19T12:53:29;25.20;47.60
41644;DHT22;44236;48.098;11.582;2023-06-19T12:55:59;25.20;48.20
41644;DHT22;44236;48.098;11.582;2023-06-19T12:58:25;25.20;48.50
41644;DHT22;44236;48.098;11.582;2023-06-19T13:00:51;25.20;48.00
41644;DHT22;44236;48.098;11.582;2023-06-19T13:03:17;25.20;48.10
41644;DHT22;44236;48.098;11.582;2023-06-19T13:05:44;25.20;48.10
41644;DHT22;44236;48.098;11.582;2023-06-19T13:08:10;25.20;49.50
41644;DHT22;44236;48.098;11.582;2023-06-19T13:10:35;25.30;48.90
41644;DHT22;44236;48.098;11.582;2023-06-19T13:13:01;25.30;48.20
41644;DHT22;44236;48.098;11.582;2023-06-19T13:15:26;25.30;48.20
41644;DHT22;44236;48.098;11.582;2023-06-19T13:17:53;25.30;48.10
41644;DHT22;44236;48.098;11.582;2023-06-19T13:20:19;25.30;48.20
41644;DHT22;44236;48.098;11.582;2023-06-19T13:22:44;25.30;48.10
41644;DHT22;44236;48.098;11.582;2023-06-19T13:25:10;25.30;48.50
41644;DHT22;44236;48.098;11.582;2023-06-19T13:27:36;25.30;48.20
41644;DHT22;44236;48.098;11.582;2023-06-19T13:30:02;25.30;47.80
41644;DHT22;44236;48.098;11.582;2023-06-19T13:32:28;25.30;48.00
41644;DHT22;44236;48.098;11.582;2023-06-19T13:34:53;25.30;48.00
41644;DHT22;44236;48.098;11.582;2023-06-19T13:37:19;25.30;48.00
41644;DHT22;44236;48.098;11.582;2023-06-19T13:39:45;25.30;48.00
41644;DHT22;44236;48.098;11.582;2023-06-19T13:42:11;25.30;48.00
41644;DHT22;44236;48.098;11.582;2023-06-19T13:44:37;25.30;48.00
41644;DHT22;44236;48.098;11.582;2023-06-19T13:47:04;25.30;48.10
41644;DHT22;44236;48.098;11.582;2023-06-19T13:49:30;25.30;48.00
41644;DHT22;44236;48.098;11.582;2023-06-19T13:51:55;26.80;49.00
41644;DHT22;44236;48.098;11.582;2023-06-19T13:54:21;25.40;48.10
41644;DHT22;44236;48.098;11.582;2023-06-19T13:56:47;25.40;48.10
41644;DHT22;44236;48.098;11.582;2023-06-19T13:59:14;25.40;48.00
41644;DHT22;44236;48.098;11.582;2023-06-19T14:01:40;25.40;48.80
41644;DHT22;44236;48.098;11.582;2023-06-19T14:04:06;25.40;48.00
41644;DHT22;44236;48.098;11.582;2023-06-19T14:06:37;25.20;48.00
41644;DHT22;44236;48.098;11.582;2023-06-19T14:09:03;25.40;50.00
41644;DHT22;44236;48.098;11.582;2023-06-19T14:11:29;25.50;48.50
41644;DHT22;44236;48.098;11.582;2023-06-19T14:13:55;25.50;48.50
41644;DHT22;44236;48.098;11.582;2023-06-19T14:16:21;25.50;48.20
41644;DHT22;44236;48.098;11.582;2023-06-19T14:18:46;25.50;47.90
41644;DHT22;44236;48.098;11.582;2023-06-19T14:21:12;25.50;48.70
41644;DHT22;44236;48.098;11.582;2023-06-19T14:23:38;25.50;48.10
41644;DHT22;44236;48.098;11.582;2023-06-19T14:26:09;25.50;48.50
41644;DHT22;44236;48.098;11.582;2023-06-19T14:28:36;25.50;48.50
41644;DHT22;44236;48.098;11.582;2023-06-19T14:31:02;25.50;48.40
41644;DHT22;44236;48.098;11.582;2023-06-19T14:33:28;25.50;48.60
41644;DHT22;44236;48.098;11.582;2023-06-19T14:35:53;25.50;48.70
41644;DHT22;44236;48.098;11.582;2023-06-19T14:38:19;25.50;48.60
41644;DHT22;44236;48.098;11.582;2023-06-19T14:40:45;25.50;48.40
41644;DHT22;44236;48.098;11.582;2023-06-19T14:43:11;25.50;48.90
41644;DHT22;44236;48.098;11.582;2023-06-19T14:45:36;25.50;49.50
41644;DHT22;44236;48.098;11.582;2023-06-19T14:48:02;25.50;49.20
41644;DHT22;44236;48.098;11.582;2023-06-19T14:50:28;25.50;49.00
41644;DHT22;44236;48.098;11.582;2023-06-19T14:52:54;25.50;48.90
41644;DHT22;44236;48.098;11.582;2023-06-19T14:55:19;25.60;49.50
41644;DHT22;44236;48.098;11.582;2023-06-19T14:57:45;25.60;49.80
41644;DHT22;44236;48.098;11.582;2023-06-19T15:00:11;25.60;50.00
41644;DHT22;44236;48.098;11.582;2023-06-19T15:02:37;25.70;50.30
41644;DHT22;44236;48.098;11.582;2023-06-19T15:05:03;25.70;50.00
41644;DHT22;44236;48.098;11.582;2023-06-19T15:07:28;25.70;50.10
41644;DHT22;44236;48.098;11.582;2023-06-19T15:09:54;25.70;50.10
41644;DHT22;44236;48.098;11.582;2023-06-19T15:12:20;25.70;51.30
41644;DHT22;44236;48.098;11.582;2023-06-19T15:14:45;25.70;50.00
41644;DHT22;44236;48.098;11.582;2023-06-19T15:17:11;25.70;52.00
41644;DHT22;44236;48.098;11.582;2023-06-19T15:19:36;25.70;52.10
41644;DHT22;44236;48.098;11.582;2023-06-19T15:22:02;25.70;50.60
41644;DHT22;44236;48.098;11.582;2023-06-19T15:24:28;25.70;50.10
41644;DHT22;44236;48.098;11.582;2023-06-19T15:26:53;25.70;49.90
41644;DHT22;44236;48.098;11.582;2023-06-19T15:29:19;25.70;49.70
41644;DHT22;44236;48.098;11.582;2023-06-19T15:31:45;25.70;51.10